createdAt,value
2018-07-06T00:02:27.443Z,98120.27
2018-07-06T00:05:06.964Z,98116.89
2018-07-06T00:07:46.369Z,98113.25
2018-07-06T00:10:26.008Z,98114.94
2018-07-06T00:13:06.316Z,98117.25
2018-07-06T00:15:46.028Z,98108.41
2018-07-06T00:18:25.594Z,98100.27
2018-07-06T00:21:05.301Z,98093.05
2018-07-06T00:23:44.759Z,98090.08
2018-07-06T00:26:24.305Z,98094.87
2018-07-06T00:29:03.883Z,98084.23
2018-07-06T00:31:44.059Z,98089.88
2018-07-06T00:34:23.436Z,98089.37
2018-07-06T00:37:02.960Z,98089.88
2018-07-06T00:39:42.371Z,98082.03
2018-07-06T00:42:21.961Z,98088.85
2018-07-06T00:45:01.444Z,98095.66
2018-07-06T00:47:41.043Z,98103.17
2018-07-06T00:50:20.598Z,98104.19
2018-07-06T00:53:00.240Z,98102.18
2018-07-06T00:55:39.801Z,98103.88
2018-07-06T00:58:23.449Z,98100.20
2018-07-06T01:01:03.191Z,98104.20
2018-07-06T01:03:42.962Z,98097.70
2018-07-06T01:06:22.588Z,98100.52
2018-07-06T01:09:02.044Z,98109.37
2018-07-06T01:11:41.517Z,98107.20
2018-07-06T01:14:21.169Z,98106.84
2018-07-06T01:17:00.912Z,98114.85
2018-07-06T01:19:40.529Z,98108.02
2018-07-06T01:22:19.950Z,98106.19
2018-07-06T01:25:00.503Z,98102.34
2018-07-06T01:27:40.035Z,98109.33
2018-07-06T01:30:19.493Z,98100.83
2018-07-06T01:32:59.021Z,98091.51
2018-07-06T01:35:38.653Z,98102.87
2018-07-06T01:38:18.228Z,98099.88
2018-07-06T01:40:58.092Z,98098.52
2018-07-06T01:43:37.535Z,98094.17
2018-07-06T01:46:17.308Z,98099.19
2018-07-06T01:48:56.875Z,98103.03
2018-07-06T01:51:36.585Z,98092.52
2018-07-06T01:54:16.216Z,98095.50
2018-07-06T01:56:55.710Z,98092.50
2018-07-06T01:59:35.318Z,98089.03
2018-07-06T02:02:14.855Z,98092.88
2018-07-06T02:04:54.342Z,98094.87
2018-07-06T02:07:34.031Z,98086.52
2018-07-06T02:10:13.612Z,98079.84
2018-07-06T02:12:53.232Z,98084.85
2018-07-06T02:15:32.872Z,98078.17
2018-07-06T02:18:12.504Z,98067.52
2018-07-06T02:20:52.080Z,98078.17
2018-07-06T02:23:31.982Z,98071.86
2018-07-06T02:26:11.531Z,98078.52
2018-07-06T02:28:51.464Z,98075.84
2018-07-06T02:31:31.087Z,98084.83
2018-07-06T02:34:11.345Z,98082.50
2018-07-06T02:36:50.939Z,98071.53
2018-07-06T02:39:30.851Z,98071.70
2018-07-06T02:42:10.425Z,98081.84
2018-07-06T02:44:50.115Z,98073.50
2018-07-06T02:47:29.606Z,98079.20
2018-07-06T02:50:09.146Z,98089.84
2018-07-06T02:52:48.688Z,98089.97
2018-07-06T02:55:28.347Z,98090.65
2018-07-06T02:58:07.965Z,98091.47
2018-07-06T03:00:47.520Z,98086.49
2018-07-06T03:03:27.155Z,98091.30
2018-07-06T03:06:06.796Z,98089.84
2018-07-06T03:08:46.384Z,98094.80
2018-07-06T03:11:26.055Z,98106.81
2018-07-06T03:14:05.537Z,98100.84
2018-07-06T03:16:45.156Z,98100.97
2018-07-06T03:19:24.816Z,98098.78
2018-07-06T03:22:04.444Z,98100.59
2018-07-06T03:24:43.914Z,98095.79
2018-07-06T03:27:23.536Z,98093.81
2018-07-06T03:30:03.205Z,98096.45
2018-07-06T03:32:42.813Z,98095.50
2018-07-06T03:35:22.427Z,98081.94
2018-07-06T03:38:02.173Z,98097.01
2018-07-06T03:40:41.832Z,98094.86
2018-07-06T03:43:21.528Z,98095.53
2018-07-06T03:46:01.376Z,98091.47
2018-07-06T03:48:41.009Z,98088.84
2018-07-06T03:51:20.838Z,98096.20
2018-07-06T03:54:00.539Z,98094.80
2018-07-06T03:56:40.005Z,98095.47
2018-07-06T03:59:19.561Z,98095.42
2018-07-06T04:01:59.161Z,98097.10
2018-07-06T04:04:38.701Z,98097.63
2018-07-06T04:07:18.244Z,98097.79
2018-07-06T04:09:57.823Z,98097.13
2018-07-06T04:12:37.578Z,98104.77
2018-07-06T04:15:17.282Z,98109.26
2018-07-06T04:17:56.936Z,98108.31
2018-07-06T04:20:37.220Z,98118.14
2018-07-06T04:23:16.840Z,98124.80
2018-07-06T04:25:56.556Z,98117.99
2018-07-06T04:28:36.224Z,98121.98
2018-07-06T04:31:15.748Z,98122.66
2018-07-06T04:33:55.316Z,98124.13
2018-07-06T04:36:34.801Z,98127.80
2018-07-06T04:39:14.266Z,98123.50
2018-07-06T04:41:53.946Z,98119.02
2018-07-06T04:44:33.438Z,98120.52
2018-07-06T04:47:13.013Z,98117.36
2018-07-06T04:49:52.410Z,98124.20
2018-07-06T04:52:31.916Z,98120.53
2018-07-06T04:55:11.562Z,98118.52
2018-07-06T04:57:51.206Z,98114.23
2018-07-06T05:00:30.716Z,98115.86
2018-07-06T05:03:10.217Z,98107.71
2018-07-06T05:05:49.737Z,98113.78
2018-07-06T05:08:29.339Z,98114.62
2018-07-06T05:11:08.847Z,98112.06
2018-07-06T05:13:48.381Z,98112.27
2018-07-06T05:16:28.016Z,98107.95
2018-07-06T05:19:07.731Z,98109.59
2018-07-06T05:21:47.440Z,98111.77
2018-07-06T05:24:27.045Z,98113.63
2018-07-06T05:27:06.683Z,98114.12
2018-07-06T05:29:46.291Z,98122.79
2018-07-06T05:32:25.926Z,98124.97
2018-07-06T05:35:05.496Z,98127.95
2018-07-06T05:37:45.087Z,98133.95
2018-07-06T05:40:24.568Z,98130.93
2018-07-06T05:43:04.209Z,98134.95
2018-07-06T05:45:43.651Z,98136.78
2018-07-06T05:48:23.156Z,98139.80
2018-07-06T05:51:02.529Z,98136.80
2018-07-06T05:53:42.194Z,98133.44
2018-07-06T05:56:21.604Z,98147.48
2018-07-06T06:02:11.218Z,98153.16
2018-07-06T06:04:50.800Z,98152.30
2018-07-06T06:07:23.897Z,98156.28
2018-07-06T06:09:52.388Z,98156.80
2018-07-06T06:12:21.173Z,98157.30
2018-07-06T06:14:50.511Z,98159.48
2018-07-06T06:17:18.896Z,98155.64
2018-07-06T06:19:47.344Z,98164.31
2018-07-06T06:22:15.812Z,98162.31
2018-07-06T06:24:44.222Z,98163.64
2018-07-06T06:27:12.652Z,98161.97
2018-07-06T06:29:41.123Z,98164.14
2018-07-06T06:32:10.117Z,98165.33
2018-07-06T06:34:38.588Z,98165.81
2018-07-06T06:37:07.035Z,98177.97
2018-07-06T06:39:35.489Z,98169.16
2018-07-06T06:42:03.964Z,98170.15
2018-07-06T06:44:32.423Z,98179.49
2018-07-06T06:47:01.056Z,98182.02
2018-07-06T06:49:31.188Z,98175.84
2018-07-06T06:52:00.603Z,98181.52
2018-07-06T06:54:30.198Z,98175.67
2018-07-06T06:56:58.654Z,98184.84
2018-07-06T06:59:27.157Z,98192.55
2018-07-06T07:01:55.629Z,98185.35
2018-07-06T07:04:24.612Z,98181.33
2018-07-06T07:06:53.180Z,98187.35
2018-07-06T07:09:21.965Z,98187.52
2018-07-06T07:11:50.669Z,98185.67
2018-07-06T07:14:19.166Z,98187.02
2018-07-06T07:16:47.652Z,98182.19
2018-07-06T07:19:16.115Z,98178.17
2018-07-06T07:21:44.634Z,98169.16
2018-07-06T07:24:13.106Z,98177.19
2018-07-06T07:26:41.571Z,98175.56
2018-07-06T07:29:10.033Z,98166.47
2018-07-06T07:31:38.590Z,98177.77
2018-07-06T07:34:07.309Z,98175.70
2018-07-06T07:36:35.842Z,98174.66
2018-07-06T07:39:05.241Z,98171.06
2018-07-06T07:41:33.692Z,98170.53
2018-07-06T07:44:02.141Z,98172.08
2018-07-06T07:46:30.829Z,98175.25
2018-07-06T07:48:59.278Z,98177.83
2018-07-06T07:52:11.380Z,98179.51
2018-07-06T07:54:47.837Z,98176.94
2018-07-06T07:57:16.503Z,98181.41
2018-07-06T07:59:45.540Z,98178.41
2018-07-06T08:02:13.984Z,98180.89
2018-07-06T08:04:42.767Z,98181.72
2018-07-06T08:07:11.223Z,98183.78
2018-07-06T08:09:39.722Z,98197.88
2018-07-06T08:12:08.179Z,98186.05
2018-07-06T08:14:37.386Z,98191.55
2018-07-06T08:17:06.255Z,98191.54
2018-07-06T08:19:34.724Z,98193.38
2018-07-06T08:22:03.223Z,98197.88
2018-07-06T08:24:31.645Z,98195.31
2018-07-06T08:27:00.124Z,98204.97
2018-07-06T08:29:28.580Z,98204.44
2018-07-06T08:31:57.019Z,98191.39
2018-07-06T08:34:36.577Z,98205.41
2018-07-06T08:37:46.477Z,98205.97
2018-07-06T08:40:15.192Z,98198.98
2018-07-06T08:42:45.072Z,98205.13
2018-07-06T08:45:14.116Z,98200.42
2018-07-06T08:47:43.375Z,98198.48
2018-07-06T08:50:11.801Z,98205.61
2018-07-06T08:52:41.379Z,98202.70
2018-07-06T08:55:09.838Z,98209.13
2018-07-06T08:57:39.164Z,98207.49
2018-07-06T09:00:08.790Z,98216.72
2018-07-06T09:02:37.311Z,98203.14
2018-07-06T09:05:06.632Z,98210.05
2018-07-06T09:07:35.120Z,98212.74
2018-07-06T09:10:03.846Z,98213.23
2018-07-06T09:12:32.439Z,98213.62
2018-07-06T09:15:01.543Z,98212.36
2018-07-06T09:17:30.122Z,98214.70
2018-07-06T09:19:59.708Z,98211.15
2018-07-06T09:22:27.891Z,98220.59
2018-07-06T09:24:57.845Z,98220.06
2018-07-06T09:27:26.308Z,98214.41
2018-07-06T09:29:54.784Z,98215.66
2018-07-06T09:32:23.191Z,98214.73
2018-07-06T09:34:52.558Z,98217.59
2018-07-06T09:37:21.017Z,98219.92
2018-07-06T09:39:50.250Z,98211.80
2018-07-06T09:42:19.010Z,98211.09
2018-07-06T09:44:47.448Z,98208.72
2018-07-06T09:47:15.998Z,98214.08
2018-07-06T09:49:44.435Z,98217.77
2018-07-06T09:52:12.998Z,98211.55
2018-07-06T09:54:41.451Z,98215.88
2018-07-06T09:57:09.872Z,98214.42
2018-07-06T09:59:38.557Z,98217.20
2018-07-06T10:02:07.015Z,98209.20
2018-07-06T10:04:35.553Z,98209.63
2018-07-06T10:07:04.038Z,98207.14
2018-07-06T10:09:32.649Z,98211.89
2018-07-06T10:12:01.070Z,98211.77
2018-07-06T10:14:29.567Z,98207.49
2018-07-06T10:16:58.275Z,98212.76
2018-07-06T10:19:26.742Z,98209.69
2018-07-06T10:21:55.367Z,98208.63
2018-07-06T10:24:23.879Z,98217.92
2018-07-06T10:26:52.320Z,98205.22
2018-07-06T10:30:28.872Z,98206.30
2018-07-06T10:32:57.353Z,98217.23
2018-07-06T10:35:25.852Z,98215.69
2018-07-06T10:37:54.582Z,98217.64
2018-07-06T10:40:23.075Z,98218.30
2018-07-06T10:42:51.467Z,98210.51
2018-07-06T10:45:19.937Z,98216.95
2018-07-06T10:47:48.354Z,98216.25
2018-07-06T10:50:16.810Z,98206.58
2018-07-06T10:52:45.264Z,98199.86
2018-07-06T10:55:13.703Z,98197.69
2018-07-06T10:57:42.267Z,98197.75
2018-07-06T11:00:10.740Z,98200.31
2018-07-06T11:02:39.136Z,98197.47
2018-07-06T11:05:07.622Z,98194.41
2018-07-06T11:07:36.084Z,98203.20
2018-07-06T11:10:05.079Z,98197.97
2018-07-06T11:12:33.492Z,98204.45
2018-07-06T11:15:01.911Z,98205.95
2018-07-06T11:17:30.372Z,98210.13
2018-07-06T11:19:58.807Z,98209.55
2018-07-06T11:22:27.424Z,98195.86
2018-07-06T11:24:55.855Z,98207.97
2018-07-06T11:27:24.287Z,98193.48
2018-07-06T11:29:52.732Z,98190.41
2018-07-06T11:32:21.204Z,98192.63
2018-07-06T11:34:49.774Z,98189.58
2018-07-06T11:37:18.723Z,98167.50
2018-07-06T11:39:47.351Z,98192.62
2018-07-06T11:42:16.070Z,98193.72
2018-07-06T11:44:44.672Z,98192.39
2018-07-06T11:47:13.094Z,98198.38
2018-07-06T11:49:41.660Z,98192.29
2018-07-06T11:52:10.083Z,98192.28
2018-07-06T11:54:38.507Z,98195.08
2018-07-06T11:57:06.915Z,98189.69
2018-07-06T11:59:35.478Z,98198.96
2018-07-06T12:02:03.923Z,98199.14
2018-07-06T12:04:32.612Z,98199.52
2018-07-06T12:07:01.011Z,98201.95
2018-07-06T12:09:29.463Z,98197.06
2018-07-06T12:11:57.887Z,98190.11
2018-07-06T12:14:26.352Z,98200.94
2018-07-06T12:16:54.780Z,98196.89
2018-07-06T12:19:23.187Z,98197.39
2018-07-06T12:21:51.648Z,98200.60
2018-07-06T12:24:20.088Z,98201.52
2018-07-06T12:26:48.503Z,98200.94
2018-07-06T12:29:16.975Z,98200.46
2018-07-06T12:31:45.400Z,98201.66
2018-07-06T12:34:13.781Z,98202.36
2018-07-06T12:36:42.251Z,98201.56
2018-07-06T12:39:10.663Z,98202.86
2018-07-06T12:41:39.194Z,98204.01
2018-07-06T12:44:07.589Z,98202.73
2018-07-06T12:46:36.034Z,98201.86
2018-07-06T12:49:04.557Z,98199.07
2018-07-06T12:51:33.019Z,98200.89
2018-07-06T12:54:01.711Z,98205.50
2018-07-06T12:56:30.151Z,98208.34
2018-07-06T12:58:58.575Z,98208.11
2018-07-06T13:01:27.295Z,98208.47
2018-07-06T13:03:55.708Z,98214.68
2018-07-06T13:06:24.119Z,98217.70
2018-07-06T13:08:52.563Z,98212.59
2018-07-06T13:11:20.992Z,98212.52
2018-07-06T13:13:49.464Z,98214.27
2018-07-06T13:16:17.899Z,98217.13
2018-07-06T13:18:46.300Z,98223.02
2018-07-06T13:21:14.736Z,98219.03
2018-07-06T13:23:43.194Z,98215.00
2018-07-06T13:26:11.613Z,98220.14
2018-07-06T13:28:40.063Z,98221.63
2018-07-06T13:31:08.511Z,98219.34
2018-07-06T13:33:36.998Z,98217.52
2018-07-06T13:36:05.596Z,98212.50
2018-07-06T13:38:34.082Z,98223.62
2018-07-06T13:41:02.519Z,98222.25
2018-07-06T13:43:30.947Z,98220.64
2018-07-06T13:46:00.765Z,98232.60
2018-07-06T13:48:29.778Z,98240.31
2018-07-06T13:50:58.224Z,98241.00
2018-07-06T13:53:26.660Z,98240.16
2018-07-06T13:55:55.084Z,98235.68
2018-07-06T13:58:24.214Z,98239.66
2018-07-06T14:00:52.649Z,98243.17
2018-07-06T14:03:21.084Z,98242.16
2018-07-06T14:05:49.559Z,98242.03
2018-07-06T14:08:18.077Z,98246.34
2018-07-06T14:10:46.590Z,98246.19
2018-07-06T14:13:15.096Z,98247.41
2018-07-06T14:15:43.543Z,98251.11
2018-07-06T14:18:11.991Z,98248.42
2018-07-06T14:20:40.463Z,98253.10
2018-07-06T14:23:08.901Z,98255.27
2018-07-06T14:25:37.678Z,98255.62
2018-07-06T14:28:06.151Z,98254.13
2018-07-06T14:30:34.559Z,98262.11
2018-07-06T14:33:02.982Z,98261.80
2018-07-06T14:35:31.640Z,98272.13
2018-07-06T14:38:00.111Z,98267.80
2018-07-06T14:40:28.586Z,98268.28
2018-07-06T14:42:57.037Z,98268.48
2018-07-06T14:45:25.521Z,98276.80
2018-07-06T14:47:53.976Z,98271.80
2018-07-06T14:50:22.471Z,98270.30
2018-07-06T14:52:50.956Z,98268.78
2018-07-06T14:55:19.497Z,98271.48
2018-07-06T14:57:47.960Z,98270.13
2018-07-06T15:00:16.426Z,98273.80
2018-07-06T15:02:44.900Z,98271.13
2018-07-06T15:05:13.356Z,98274.46
2018-07-06T15:07:42.150Z,98270.11
2018-07-06T15:10:11.184Z,98268.75
2018-07-06T15:12:39.665Z,98270.77
2018-07-06T15:15:08.120Z,98274.67
2018-07-06T15:17:37.031Z,98274.09
2018-07-06T15:20:05.500Z,98275.54
2018-07-06T15:22:34.946Z,98256.94
2018-07-06T15:25:03.517Z,98270.77
2018-07-06T15:27:32.028Z,98275.44
2018-07-06T15:30:00.507Z,98271.13
2018-07-06T15:32:28.957Z,98273.32
2018-07-06T15:34:57.399Z,98278.64
2018-07-06T15:37:25.916Z,98271.75
2018-07-06T15:39:54.383Z,98271.81
2018-07-06T15:42:22.790Z,98271.92
2018-07-06T15:44:51.264Z,98269.09
2018-07-06T15:47:19.792Z,98265.81
2018-07-06T15:49:48.210Z,98272.46
2018-07-06T15:52:16.895Z,98271.79
2018-07-06T15:54:45.333Z,98268.13
2018-07-06T15:57:14.111Z,98274.81
2018-07-06T15:59:42.535Z,98273.15
2018-07-06T16:02:11.086Z,98270.13
2018-07-06T16:04:39.595Z,98271.47
2018-07-06T16:07:08.017Z,98279.34
2018-07-06T16:09:36.684Z,98276.47
2018-07-06T16:12:05.120Z,98278.13
2018-07-06T16:14:33.559Z,98279.15
2018-07-06T16:17:02.003Z,98287.34
2018-07-06T16:19:30.418Z,98292.16
2018-07-06T16:21:58.881Z,98297.16
2018-07-06T16:24:27.360Z,98301.69
2018-07-06T16:26:55.807Z,98307.53
2018-07-06T16:29:24.237Z,98299.87
2018-07-06T16:31:52.746Z,98300.19
2018-07-06T16:34:21.180Z,98299.19
2018-07-06T16:36:49.677Z,98297.87
2018-07-06T16:39:18.295Z,98302.84
2018-07-06T16:41:46.720Z,98301.87
2018-07-06T16:44:15.158Z,98308.55
2018-07-06T16:46:44.411Z,98309.87
2018-07-06T16:49:12.835Z,98313.22
2018-07-06T16:51:41.319Z,98312.05
2018-07-06T16:54:09.725Z,98309.81
2018-07-06T16:56:38.187Z,98310.14
2018-07-06T16:59:06.874Z,98272.91
2018-07-06T17:01:35.296Z,98309.30
2018-07-06T17:04:04.006Z,98323.95
2018-07-06T17:06:32.446Z,98318.27
2018-07-06T17:09:01.272Z,98319.08
2018-07-06T17:11:30.017Z,98318.91
2018-07-06T17:13:58.439Z,98315.77
2018-07-06T17:16:26.936Z,98321.05
2018-07-06T17:18:55.339Z,98328.39
2018-07-06T17:21:23.804Z,98327.20
2018-07-06T17:23:52.643Z,98327.75
2018-07-06T17:26:21.384Z,98330.17
2018-07-06T17:28:49.935Z,98329.99
2018-07-06T17:31:18.568Z,98329.30
2018-07-06T17:33:47.228Z,98332.42
2018-07-06T17:36:15.643Z,98333.61
2018-07-06T17:38:44.067Z,98340.24
2018-07-06T17:41:12.765Z,98337.16
2018-07-06T17:43:41.197Z,98343.96
2018-07-06T17:46:09.643Z,98341.95
2018-07-06T17:48:38.132Z,98349.95
2018-07-06T17:51:06.748Z,98354.13
2018-07-06T17:53:35.292Z,98353.63
2018-07-06T17:56:03.755Z,98361.22
2018-07-06T17:58:32.201Z,98360.85
2018-07-06T18:01:00.860Z,98367.12
2018-07-06T18:03:29.315Z,98358.80
2018-07-06T18:05:58.079Z,98358.09
2018-07-06T18:08:26.703Z,98364.89
2018-07-06T18:10:55.394Z,98373.78
2018-07-06T18:13:23.835Z,98360.39
2018-07-06T18:15:52.286Z,98371.72
2018-07-06T18:18:21.081Z,98369.47
2018-07-06T18:20:49.633Z,98378.80
2018-07-06T18:23:18.220Z,98380.01
2018-07-06T18:25:47.002Z,98381.23
2018-07-06T18:28:15.459Z,98385.66
2018-07-06T18:30:44.095Z,98391.45
2018-07-06T18:33:12.567Z,98398.04
2018-07-06T18:35:40.963Z,98401.98
2018-07-06T18:38:09.416Z,98400.51
2018-07-06T18:40:37.890Z,98402.27
2018-07-06T18:43:06.336Z,98409.24
2018-07-06T18:45:34.842Z,98406.25
2018-07-06T18:48:03.312Z,98422.38
2018-07-06T18:50:31.763Z,98423.56
2018-07-06T18:53:00.500Z,98419.88
2018-07-06T18:55:28.964Z,98423.87
2018-07-06T18:57:57.384Z,98427.02
2018-07-06T19:00:26.203Z,98429.30
2018-07-06T19:02:54.711Z,98435.84
2018-07-06T19:06:26.039Z,98442.62
2018-07-06T19:08:54.548Z,98442.43
2018-07-06T19:11:22.984Z,98457.32
2018-07-06T19:13:51.427Z,98456.41
2018-07-06T19:16:19.866Z,98458.10
2018-07-06T19:18:48.428Z,98463.45
2018-07-06T19:21:16.904Z,98468.06
2018-07-06T19:23:45.370Z,98470.41
2018-07-06T19:26:13.830Z,98470.36
2018-07-06T19:28:42.295Z,98474.45
2018-07-06T19:31:10.754Z,98482.92
2018-07-06T19:33:39.647Z,98480.03
2018-07-06T19:36:08.088Z,98493.17
2018-07-06T19:38:36.727Z,98490.20
2018-07-06T19:41:06.023Z,98482.41
2018-07-06T19:43:34.723Z,98482.44
2018-07-06T19:46:03.385Z,98488.06
2018-07-06T19:48:32.766Z,98497.80
2018-07-06T19:51:01.418Z,98489.98
2018-07-06T19:53:29.816Z,98492.47
2018-07-06T19:55:58.243Z,98487.53
2018-07-06T19:58:26.819Z,98489.30
2018-07-06T20:00:55.224Z,98494.09
2018-07-06T20:03:23.627Z,98495.55
2018-07-06T20:05:52.031Z,98512.55
2018-07-06T20:08:20.447Z,98516.92
2018-07-06T20:10:48.918Z,98517.30
2018-07-06T20:13:17.414Z,98525.42
2018-07-06T20:15:45.848Z,98532.38
2018-07-06T20:18:14.293Z,98541.36
2018-07-06T20:20:42.765Z,98544.09
2018-07-06T20:23:11.967Z,98544.63
2018-07-06T20:25:40.420Z,98542.27
2018-07-06T20:28:08.971Z,98545.70
2018-07-06T20:30:37.386Z,98546.70
2018-07-06T20:33:05.825Z,98546.58
2018-07-06T20:35:34.247Z,98552.32
2018-07-06T20:38:02.696Z,98565.96
2018-07-06T20:40:31.139Z,98566.07
2018-07-06T20:42:59.546Z,98565.41
2018-07-06T20:45:27.992Z,98566.47
2018-07-06T20:47:56.415Z,98564.73
2018-07-06T20:50:24.848Z,98565.25
2018-07-06T20:52:53.954Z,98563.02
2018-07-06T20:55:22.377Z,98567.45
2018-07-06T20:57:50.810Z,98564.80
2018-07-06T21:00:19.305Z,98564.06
2018-07-06T21:02:47.751Z,98567.95
2018-07-06T21:05:17.088Z,98560.23
2018-07-06T21:07:45.487Z,98558.73
2018-07-06T21:10:14.248Z,98565.30
2018-07-06T21:12:42.681Z,98565.10
2018-07-06T21:15:11.145Z,98561.98
2018-07-06T21:17:39.570Z,98566.58
2018-07-06T21:20:08.018Z,98564.00
2018-07-06T21:22:36.463Z,98560.70
2018-07-06T21:25:05.109Z,98570.95
2018-07-06T21:27:33.536Z,98573.22
2018-07-06T21:30:02.190Z,98572.12
2018-07-06T21:32:30.681Z,98570.41
2018-07-06T21:34:59.134Z,98571.51
2018-07-06T21:37:27.584Z,98573.83
2018-07-06T21:39:56.027Z,98578.11
2018-07-06T21:42:24.460Z,98580.94
2018-07-06T21:44:53.337Z,98584.23
2018-07-06T21:47:22.123Z,98587.77
2018-07-06T21:49:50.565Z,98587.41
2018-07-06T21:52:19.024Z,98587.03
2018-07-06T21:54:47.431Z,98584.83
2018-07-06T21:57:15.893Z,98591.22
2018-07-06T21:59:44.324Z,98589.45
2018-07-06T22:02:16.007Z,98586.24
2018-07-06T22:04:46.223Z,98571.16
2018-07-06T22:07:16.452Z,98589.02
2018-07-06T22:09:45.427Z,98591.55
2018-07-06T22:12:14.722Z,98595.68
2018-07-06T22:14:43.147Z,98597.13
2018-07-06T22:17:11.615Z,98600.48
2018-07-06T22:19:40.048Z,98607.23
2018-07-06T22:22:08.503Z,98601.52
2018-07-06T22:24:37.287Z,98604.43
2018-07-06T22:27:06.164Z,98606.44
2018-07-06T22:29:34.576Z,98608.27
2018-07-06T22:32:03.044Z,98606.94
2018-07-06T22:34:31.647Z,98604.80
2018-07-06T22:37:00.080Z,98614.58
2018-07-06T22:39:29.212Z,98601.70
2018-07-06T22:41:57.664Z,98601.69
2018-07-06T22:44:26.115Z,98610.46
2018-07-06T22:46:54.559Z,98611.97
2018-07-06T22:49:23.006Z,98616.28
2018-07-06T22:52:54.049Z,98610.23
2018-07-06T22:55:22.508Z,98605.63
2018-07-06T22:57:50.978Z,98606.97
2018-07-06T23:00:19.461Z,98611.41
2018-07-06T23:02:48.179Z,98607.72
2018-07-06T23:05:18.960Z,98610.67
2018-07-06T23:07:47.700Z,98600.89
2018-07-06T23:10:16.159Z,98614.44
2018-07-06T23:12:44.629Z,98613.81
2018-07-06T23:15:13.091Z,98614.27
2018-07-06T23:17:41.485Z,98605.11
2018-07-06T23:20:09.956Z,98606.97
2018-07-06T23:23:12.977Z,98607.61
2018-07-06T23:25:42.880Z,98607.06
2018-07-06T23:28:11.413Z,98609.95
2018-07-06T23:30:40.025Z,98616.84
2018-07-06T23:33:09.555Z,98610.77
2018-07-06T23:35:37.984Z,98606.53
2018-07-06T23:38:06.488Z,98612.43
2018-07-06T23:40:35.031Z,98610.45
2018-07-06T23:43:03.516Z,98610.25
2018-07-06T23:45:31.980Z,98608.05
2018-07-06T23:48:00.463Z,98605.84
2018-07-06T23:50:28.904Z,98601.45
2018-07-06T23:52:57.328Z,98601.72
2018-07-06T23:55:25.796Z,98605.09
2018-07-06T23:57:54.247Z,98602.06
